Wetterdaten: aktuell Mittwoch, 18.10.2017 21:00
Datum Zeit Temp. A. Feuchte A. Luftdruck Regen Wind Richtung Richtung Sonnenschein ET UV Solar Taupunkt Windchill Windben
18.10.2017 21:00 11,9 C 89 % 1013,9 hPa 0,0 l/m 0,0 km/h (0 Bft) O-NO 64 0 min 0,000 mm 0,0 UV-I 0 W/m 10,1 C 11,9 C 0,0 km/h (0 Bft)
18.10.2017 20:00 13,4 C 88 % 1014,2 hPa 0,0 l/m 0,0 km/h (0 Bft) O-NO 64 0 min 0,000 mm 0,0 UV-I 0 W/m 11,5 C 13,4 C 0,0 km/h (0 Bft)
18.10.2017 19:00 14,8 C 84 % 1013,9 hPa 0,0 l/m 0,0 km/h (0 Bft) O-NO 64 0 min 0,025 mm 0,0 UV-I 0 W/m 12,1 C 14,8 C 0,0 km/h (0 Bft)
18.10.2017 18:00 17,4 C 79 % 1013,9 hPa 0,0 l/m 0,0 km/h (0 Bft) O-NO 64 15 min 0,102 mm 0,0 UV-I 16 W/m 13,7 C 17,4 C 0,0 km/h (0 Bft)
18.10.2017 17:00 19,2 C 73 % 1013,8 hPa 0,0 l/m 0,0 km/h (0 Bft) O-NO 64 45 min 0,127 mm 0,0 UV-I 63 W/m 14,2 C 19,2 C 0,0 km/h (0 Bft)
18.10.2017 16:00 19,9 C 70 % 1014,0 hPa 0,0 l/m 0,0 km/h (0 Bft) W-NW 291 45 min 0,152 mm 0,7 UV-I 188 W/m 14,3 C 19,9 C 0,0 km/h (0 Bft)
18.10.2017 15:00 19,7 C 70 % 1014,2 hPa 0,0 l/m 0,0 km/h (0 Bft) O-NO 60 35 min 0,152 mm 1,2 UV-I 274 W/m 14,1 C 19,7 C 0,0 km/h (0 Bft)
18.10.2017 14:00 19,3 C 71 % 1014,7 hPa 0,0 l/m 0,0 km/h (0 Bft) O-NO 60 40 min 0,178 mm 1,6 UV-I 353 W/m 13,9 C 19,3 C 0,0 km/h (0 Bft)
18.10.2017 13:00 18,4 C 74 % 1015,2 hPa 0,0 l/m 0,0 km/h (0 Bft) S 169 40 min 0,178 mm 1,9 UV-I 396 W/m 13,7 C 18,4 C 0,0 km/h (0 Bft)
18.10.2017 12:00 17,4 C 75 % 1015,6 hPa 0,0 l/m 0,0 km/h (0 Bft) N-NW 348 55 min 0,177 mm 1,5 UV-I 251 W/m 12,9 C 17,4 C 0,0 km/h (0 Bft)
18.10.2017 11:00 15,8 C 78 % 1016,0 hPa 0,0 l/m 0,0 km/h (0 Bft) S-SW 192 60 min 0,051 mm 1,4 UV-I 315 W/m 12,0 C 15,8 C 0,0 km/h (0 Bft)
18.10.2017 10:00 12,2 C 86 % 1016,2 hPa 0,0 l/m 0,0 km/h (0 Bft) S 177 25 min 0,025 mm 0,8 UV-I 285 W/m 9,9 C 12,2 C 0,0 km/h (0 Bft)
18.10.2017 09:00 9,3 C 92 % 1016,3 hPa 0,0 l/m 0,0 km/h (0 Bft) S 174 0 min 0,000 mm 0,0 UV-I 60 W/m 8,1 C 9,3 C 0,0 km/h (0 Bft)
18.10.2017 08:00 8,5 C 92 % 1016,2 hPa 0,0 l/m 0,0 km/h (0 Bft) S 174 0 min 0,000 mm 0,0 UV-I 9 W/m 7,3 C 8,5 C 0,0 km/h (0 Bft)
18.10.2017 07:00 9,0 C 92 % 1016,4 hPa 0,0 l/m 0,0 km/h (0 Bft) S 174 0 min 0,000 mm 0,0 UV-I 0 W/m 7,8 C 9,0 C 0,0 km/h (0 Bft)
18.10.2017 06:00 8,6 C 92 % 1016,6 hPa 0,0 l/m 0,0 km/h (0 Bft) S-SO 165 0 min 0,000 mm 0,0 UV-I 0 W/m 7,4 C 8,6 C 0,0 km/h (0 Bft)
18.10.2017 05:00 8,9 C 92 % 1017,1 hPa 0,0 l/m 0,0 km/h (0 Bft) - - 0 0 min 0,000 mm 0,0 UV-I 0 W/m 7,7 C 8,9 C 0,0 km/h (0 Bft)
18.10.2017 04:00 8,8 C 91 % 1017,5 hPa 0,0 l/m 0,0 km/h (0 Bft) - - 0 0 min 0,000 mm 0,0 UV-I 0 W/m 7,4 C 8,8 C 0,0 km/h (0 Bft)
18.10.2017 03:00 9,6 C 91 % 1017,6 hPa 0,0 l/m 0,0 km/h (0 Bft) - - 0 0 min 0,000 mm 0,0 UV-I 0 W/m 8,2 C 9,6 C 0,0 km/h (0 Bft)
18.10.2017 02:00 10,4 C 91 % 1017,7 hPa 0,0 l/m 0,0 km/h (0 Bft) - - 0 0 min 0,000 mm 0,0 UV-I 0 W/m 9,0 C 10,4 C 0,0 km/h (0 Bft)
18.10.2017 01:00 10,2 C 90 % 1018,1 hPa 0,0 l/m 0,0 km/h (0 Bft) - - 0 0 min 0,000 mm 0,0 UV-I 0 W/m 8,6 C 10,2 C 0,0 km/h (0 Bft)
18.10.2017 00:00 10,6 C 90 % 1018,4 hPa 0,0 l/m 0,0 km/h (0 Bft) - - 0 0 min 0,000 mm 0,0 UV-I 0 W/m 9,0 C 10,6 C 0,0 km/h (0 Bft)
_ Min-Zeit 07:50 14:45 16:45 - 00:00 - - - - - - 07:55 07:50 00:00
Minimum _ 8,4 C 69 % 1013,8 hPa - 0,0 km/h (0 Bft) - - - - - - 7,0 C 8,4 C 0,0 km/h (0 Bft)
_ Max-Zeit 15:10 04:35 00:00 00:00 00:00 - - 09:35 13:00 12:40 13:05 16:05 15:10 00:00
Maximum _ 20,3 C 92 % 1018,4 hPa 0,0 l/m 0,0 km/h
- - (0 Bft)
- - 5 min 0,178 mm 2,0 UV-I 411 W/m 14,7 C 20,3 C 0,0 km/h
- - (0 Bft)
Durchschnitt _ 13,4 C 84 % 1015,8 hPa #0,0 l/m 0,0 km/h (0 Bft) - - - #6:00 h #1,168 mm 1,2 UV-I 202 W/m 10,6 C 13,4 C 0,0 km/h (0 Bft)